createdAt,value
2022-10-14T00:00:40.579Z,35.13
2022-10-14T00:03:08.721Z,38.27
2022-10-14T00:05:40.629Z,36.63
2022-10-14T00:08:10.707Z,38.03
2022-10-14T00:10:40.866Z,38.97
2022-10-14T00:13:08.997Z,37.53
2022-10-14T00:15:40.708Z,51.73
2022-10-14T00:18:09.124Z,40.37
2022-10-14T00:20:37.245Z,43.37
2022-10-14T00:23:05.444Z,33.00
2022-10-14T00:25:33.774Z,37.10
2022-10-14T00:28:03.807Z,38.70
2022-10-14T00:30:31.974Z,42.50
2022-10-14T00:33:00.550Z,36.73
2022-10-14T00:35:28.724Z,38.23
2022-10-14T00:37:57.020Z,36.80
2022-10-14T00:40:25.124Z,35.40
2022-10-14T00:42:53.335Z,32.57
2022-10-14T00:45:24.015Z,35.33
2022-10-14T00:47:52.253Z,35.20
2022-10-14T00:50:20.368Z,34.87
2022-10-14T00:52:48.578Z,33.07
2022-10-14T00:55:18.217Z,39.20
2022-10-14T00:57:46.672Z,35.30
2022-10-14T01:00:16.398Z,38.37
2022-10-14T01:02:46.748Z,37.23
2022-10-14T01:05:15.492Z,41.47
2022-10-14T01:07:52.483Z,36.97
2022-10-14T01:10:25.005Z,39.20
2022-10-14T01:13:00.305Z,34.77
2022-10-14T01:15:31.429Z,38.17
2022-10-14T01:18:06.127Z,39.73
2022-10-14T01:20:44.328Z,37.80
2022-10-14T01:23:25.326Z,35.83
2022-10-14T01:25:57.652Z,38.10
2022-10-14T01:28:28.000Z,40.57
2022-10-14T01:30:58.565Z,37.20
2022-10-14T01:33:27.605Z,36.70
2022-10-14T01:36:00.346Z,38.77
2022-10-14T01:38:30.624Z,38.57
2022-10-14T01:40:59.908Z,37.33
2022-10-14T01:43:28.824Z,38.80
2022-10-14T01:45:58.489Z,38.07
2022-10-14T01:48:28.701Z,37.00
2022-10-14T01:50:56.852Z,38.80
2022-10-14T01:53:26.018Z,36.40
2022-10-14T01:55:55.154Z,36.03
2022-10-14T01:58:24.770Z,40.23
2022-10-14T02:00:52.930Z,38.10
2022-10-14T02:03:22.632Z,36.13
2022-10-14T02:05:53.083Z,34.90
2022-10-14T02:08:26.596Z,39.83
2022-10-14T02:11:03.140Z,37.37
2022-10-14T02:13:38.636Z,38.87
2022-10-14T02:16:10.265Z,37.40
2022-10-14T02:18:42.271Z,37.03
2022-10-14T02:21:17.279Z,39.03
2022-10-14T02:23:47.252Z,35.80
2022-10-14T02:26:15.355Z,34.37
2022-10-14T02:28:43.858Z,35.00
2022-10-14T02:31:13.755Z,35.17
2022-10-14T02:33:44.205Z,37.00
2022-10-14T02:36:13.215Z,40.50
2022-10-14T02:38:41.464Z,40.57
2022-10-14T02:41:11.335Z,35.30
2022-10-14T02:43:39.581Z,36.17
2022-10-14T02:46:07.799Z,35.07
2022-10-14T02:48:36.079Z,37.60
2022-10-14T02:51:05.691Z,35.50
2022-10-14T02:53:33.876Z,35.57
2022-10-14T02:56:02.146Z,36.47
2022-10-14T02:58:30.333Z,33.50
2022-10-14T03:00:58.530Z,41.70
2022-10-14T03:03:26.735Z,38.07
2022-10-14T03:05:54.916Z,37.50
2022-10-14T03:08:24.409Z,38.13
2022-10-14T03:10:52.515Z,36.47
2022-10-14T03:13:20.691Z,38.57
2022-10-14T03:15:50.249Z,35.70
2022-10-14T03:18:18.424Z,36.03
2022-10-14T03:20:46.649Z,36.93
2022-10-14T03:23:15.009Z,38.97
2022-10-14T03:25:46.544Z,36.57
2022-10-14T03:28:14.794Z,37.67
2022-10-14T03:30:43.050Z,35.87
2022-10-14T03:33:14.779Z,35.93
2022-10-14T03:35:43.822Z,37.10
2022-10-14T03:38:12.407Z,36.57
2022-10-14T03:40:40.530Z,39.27
2022-10-14T03:43:10.172Z,38.77
2022-10-14T03:45:38.587Z,37.87
2022-10-14T03:48:07.159Z,36.03
2022-10-14T03:50:35.606Z,38.47
2022-10-14T03:53:03.777Z,39.20
2022-10-14T03:55:32.306Z,37.93
2022-10-14T03:58:00.530Z,37.43
2022-10-14T04:00:30.190Z,36.83
2022-10-14T04:02:58.533Z,39.30
2022-10-14T04:05:29.313Z,41.93
2022-10-14T04:07:57.738Z,33.90
2022-10-14T04:10:25.856Z,35.63
2022-10-14T04:12:54.656Z,36.27
2022-10-14T04:15:23.396Z,42.27
2022-10-14T04:17:53.453Z,45.43
2022-10-14T04:20:21.594Z,38.37
2022-10-14T04:22:49.976Z,39.37
2022-10-14T04:25:18.337Z,39.27
2022-10-14T04:27:46.659Z,39.00
2022-10-14T04:30:14.947Z,41.37
2022-10-14T04:32:43.125Z,42.00
2022-10-14T04:35:12.760Z,37.97
2022-10-14T04:37:40.906Z,34.10
2022-10-14T04:40:09.679Z,38.97
2022-10-14T04:42:37.912Z,40.63
2022-10-14T04:45:06.859Z,40.73
2022-10-14T04:47:35.111Z,39.63
2022-10-14T04:50:03.273Z,41.93
2022-10-14T04:52:32.757Z,42.47
2022-10-14T04:55:00.895Z,39.13
2022-10-14T04:57:29.104Z,40.87
2022-10-14T04:59:57.232Z,40.87
2022-10-14T05:02:25.440Z,38.27
2022-10-14T05:04:53.797Z,36.03
2022-10-14T05:07:21.965Z,39.67
2022-10-14T05:09:56.201Z,39.67
2022-10-14T05:12:24.868Z,37.73
2022-10-14T05:14:53.152Z,42.47
2022-10-14T05:17:21.375Z,38.63
2022-10-14T05:19:49.564Z,37.83
2022-10-14T05:22:17.691Z,34.97
2022-10-14T05:24:46.205Z,34.77
2022-10-14T05:27:15.763Z,35.07
2022-10-14T05:29:43.919Z,37.80
2022-10-14T05:32:12.049Z,37.97
2022-10-14T05:34:40.227Z,34.47
2022-10-14T05:37:08.426Z,36.43
2022-10-14T05:39:36.550Z,35.87
2022-10-14T05:42:04.853Z,36.37
2022-10-14T05:44:34.661Z,40.90
2022-10-14T05:47:02.919Z,37.20
2022-10-14T05:49:31.086Z,40.13
2022-10-14T05:51:59.316Z,39.10
2022-10-14T05:54:27.690Z,40.70
2022-10-14T05:56:56.048Z,37.67
2022-10-14T05:59:24.391Z,35.97
2022-10-14T06:01:53.983Z,37.50
2022-10-14T06:04:22.446Z,34.67
2022-10-14T06:06:50.654Z,38.40
2022-10-14T06:09:18.850Z,33.70
2022-10-14T06:11:47.161Z,35.33
2022-10-14T06:14:15.256Z,32.83
2022-10-14T06:16:43.682Z,34.67
2022-10-14T06:19:13.319Z,38.03
2022-10-14T06:21:41.626Z,35.83
2022-10-14T06:24:09.999Z,32.70
2022-10-14T06:26:38.644Z,34.67
2022-10-14T06:29:06.900Z,35.70
2022-10-14T06:31:35.109Z,38.93
2022-10-14T06:34:06.372Z,32.23
2022-10-14T06:36:36.019Z,34.57
2022-10-14T06:39:04.608Z,37.83
2022-10-14T06:41:33.196Z,33.60
2022-10-14T06:44:01.471Z,35.33
2022-10-14T06:46:30.162Z,30.13
2022-10-14T06:48:58.300Z,36.47
2022-10-14T06:51:26.560Z,39.23
2022-10-14T06:53:56.076Z,36.53
2022-10-14T06:56:24.223Z,33.57
2022-10-14T06:58:55.039Z,38.50
2022-10-14T07:01:23.295Z,33.17
2022-10-14T07:03:54.236Z,40.10
2022-10-14T07:06:24.847Z,35.17
2022-10-14T07:08:52.925Z,30.60
2022-10-14T07:11:22.500Z,32.97
2022-10-14T07:13:50.604Z,41.07
2022-10-14T07:16:18.771Z,36.33
2022-10-14T07:18:46.869Z,36.17
2022-10-14T07:21:14.924Z,34.13
2022-10-14T07:23:43.082Z,30.93
2022-10-14T07:26:11.139Z,35.63
2022-10-14T07:28:40.770Z,35.03
2022-10-14T07:31:10.084Z,36.17
2022-10-14T07:33:39.112Z,35.67
2022-10-14T07:36:08.599Z,37.30
2022-10-14T07:38:36.771Z,38.17
2022-10-14T07:41:05.721Z,35.70
2022-10-14T07:43:34.019Z,39.70
2022-10-14T07:46:04.196Z,39.60
2022-10-14T07:48:45.315Z,47.13
2022-10-14T07:51:21.247Z,41.67
2022-10-14T07:53:50.270Z,40.90
2022-10-14T07:56:18.410Z,40.67
2022-10-14T07:58:46.993Z,47.13
2022-10-14T08:01:16.885Z,41.37
2022-10-14T08:03:45.076Z,41.20
2022-10-14T08:06:13.309Z,39.07
2022-10-14T08:08:41.405Z,44.13
2022-10-14T08:11:10.164Z,38.93
2022-10-14T08:13:41.832Z,42.83
2022-10-14T08:16:16.837Z,40.83
2022-10-14T08:18:44.999Z,41.20
2022-10-14T08:21:13.222Z,40.47
2022-10-14T08:23:41.391Z,38.17
2022-10-14T08:26:20.019Z,44.40
2022-10-14T08:28:48.213Z,39.57
2022-10-14T08:31:17.913Z,41.80
2022-10-14T08:33:46.072Z,46.07
2022-10-14T08:36:14.506Z,39.17
2022-10-14T08:38:42.957Z,45.97
2022-10-14T08:41:23.352Z,43.07
2022-10-14T08:43:52.078Z,42.87
2022-10-14T08:46:24.822Z,48.07
2022-10-14T08:48:52.972Z,48.83
2022-10-14T08:51:21.089Z,45.50
2022-10-14T08:53:50.590Z,48.63
2022-10-14T08:56:18.965Z,46.17
2022-10-14T08:58:48.841Z,48.37
2022-10-14T09:01:20.275Z,49.67
2022-10-14T09:03:49.782Z,49.63
2022-10-14T09:06:21.465Z,50.97
2022-10-14T09:08:50.072Z,42.07
2022-10-14T09:11:19.980Z,50.80
2022-10-14T09:13:49.374Z,46.00
2022-10-14T09:16:19.071Z,42.00
2022-10-14T09:18:53.818Z,58.20
2022-10-14T09:21:40.337Z,41.47
2022-10-14T09:24:17.478Z,41.13
2022-10-14T09:26:46.653Z,41.23
2022-10-14T09:29:21.353Z,45.20
2022-10-14T09:31:49.582Z,40.20
2022-10-14T09:34:20.344Z,41.93
2022-10-14T09:36:48.693Z,40.63
2022-10-14T09:39:16.839Z,37.07
2022-10-14T09:41:45.202Z,40.23
2022-10-14T09:44:18.694Z,34.80
2022-10-14T09:46:51.011Z,34.13
2022-10-14T09:49:23.511Z,31.87
2022-10-14T09:51:53.039Z,36.57
2022-10-14T09:54:23.850Z,33.47
2022-10-14T09:56:58.551Z,33.50
2022-10-14T09:59:26.617Z,31.37
2022-10-14T10:01:56.142Z,35.27
2022-10-14T10:04:34.335Z,32.63
2022-10-14T10:07:03.705Z,33.63
2022-10-14T10:09:31.800Z,31.20
2022-10-14T10:11:59.953Z,29.40
2022-10-14T10:14:29.671Z,33.00
2022-10-14T10:17:14.078Z,29.00
2022-10-14T10:19:44.200Z,27.63
2022-10-14T10:22:23.193Z,29.03
2022-10-14T10:24:51.894Z,31.00
2022-10-14T10:27:26.370Z,28.40
2022-10-14T10:29:55.664Z,30.47
2022-10-14T10:32:30.270Z,32.40
2022-10-14T10:35:08.369Z,21.30
2022-10-14T10:37:38.989Z,28.77
2022-10-14T10:40:29.093Z,32.17
2022-10-14T10:43:04.857Z,25.77
2022-10-14T10:45:39.543Z,27.23
2022-10-14T10:48:09.719Z,22.83
2022-10-14T10:50:45.016Z,30.93
2022-10-14T10:53:25.617Z,32.27
2022-10-14T10:55:59.267Z,28.97
2022-10-14T10:58:37.372Z,28.43
2022-10-14T11:01:10.416Z,28.23
2022-10-14T11:03:46.035Z,23.10
2022-10-14T11:06:39.537Z,21.60
2022-10-14T11:09:27.740Z,23.50
2022-10-14T11:12:07.920Z,22.73
2022-10-14T11:15:03.070Z,19.23
2022-10-14T11:17:35.383Z,23.33
2022-10-14T11:20:06.543Z,27.13
2022-10-14T11:22:49.238Z,22.47
2022-10-14T11:25:22.782Z,24.70
2022-10-14T11:27:53.392Z,26.43
2022-10-14T11:30:22.043Z,22.47
2022-10-14T11:33:09.112Z,23.47
2022-10-14T11:35:47.806Z,23.43
2022-10-14T11:41:05.244Z,21.93
2022-10-14T11:43:39.561Z,22.80
2022-10-14T11:46:08.870Z,19.80
2022-10-14T11:48:37.549Z,21.00
2022-10-14T11:51:17.348Z,21.13
2022-10-14T11:53:57.017Z,23.90
2022-10-14T11:56:33.156Z,24.67
2022-10-14T11:59:37.835Z,20.17
2022-10-14T12:02:15.590Z,20.27
2022-10-14T12:04:44.983Z,23.67
2022-10-14T12:07:18.326Z,22.17
2022-10-14T12:09:49.545Z,25.93
2022-10-14T12:12:19.397Z,21.97
2022-10-14T12:14:50.291Z,22.57
2022-10-14T12:17:20.762Z,20.10
2022-10-14T12:19:49.147Z,25.30
2022-10-14T12:22:20.252Z,19.23
2022-10-14T12:24:51.507Z,19.30
2022-10-14T12:27:20.145Z,20.00
2022-10-14T12:29:49.916Z,25.63
2022-10-14T12:32:24.628Z,23.47
2022-10-14T12:34:54.874Z,21.20
2022-10-14T12:37:43.172Z,24.13
2022-10-14T12:40:27.335Z,21.13
2022-10-14T12:43:15.054Z,18.73
2022-10-14T12:45:49.923Z,20.90
2022-10-14T12:48:19.933Z,20.27
2022-10-14T12:50:48.781Z,21.63
2022-10-14T12:53:24.645Z,23.73
2022-10-14T12:55:55.573Z,23.70
2022-10-14T12:58:29.009Z,24.00
2022-10-14T13:01:00.052Z,24.27
2022-10-14T13:03:29.279Z,23.77
2022-10-14T13:06:29.828Z,22.70
2022-10-14T13:09:40.947Z,27.27
2022-10-14T13:12:35.230Z,23.30
2022-10-14T13:15:04.339Z,23.10
2022-10-14T13:17:45.327Z,22.10
2022-10-14T13:20:51.024Z,18.67
2022-10-14T13:23:27.896Z,20.73
2022-10-14T13:25:56.095Z,21.20
2022-10-14T13:28:27.513Z,22.70
2022-10-14T13:31:00.421Z,20.17
2022-10-14T13:33:33.200Z,20.80
2022-10-14T13:36:08.940Z,23.97
2022-10-14T13:38:37.076Z,21.73
2022-10-14T13:41:05.197Z,19.80
2022-10-14T13:43:37.544Z,21.77
2022-10-14T13:46:06.947Z,19.73
2022-10-14T13:48:36.618Z,19.93
2022-10-14T13:51:24.447Z,19.27
2022-10-14T13:54:10.634Z,17.87
2022-10-14T13:56:39.053Z,19.60
2022-10-14T13:59:39.295Z,19.67
2022-10-14T14:02:14.403Z,22.00
2022-10-14T14:04:42.556Z,24.80
2022-10-14T14:07:47.831Z,23.00
2022-10-14T14:10:04.328Z,22.83
2022-10-14T14:12:32.559Z,25.40
2022-10-14T14:15:02.110Z,22.27
2022-10-14T14:17:31.642Z,24.83
2022-10-14T14:19:59.910Z,22.33
2022-10-14T14:22:28.875Z,19.40
2022-10-14T14:25:32.650Z,24.93
2022-10-14T14:28:02.514Z,24.87
2022-10-14T14:30:33.055Z,27.20
2022-10-14T14:33:02.117Z,27.40
2022-10-14T14:35:30.455Z,25.67
2022-10-14T14:37:58.869Z,22.80
2022-10-14T14:40:28.057Z,24.20
2022-10-14T14:42:57.745Z,21.70
2022-10-14T14:45:26.654Z,25.07
2022-10-14T14:47:57.613Z,27.53
2022-10-14T14:50:31.487Z,28.13
2022-10-14T14:53:02.358Z,27.93
2022-10-14T14:56:00.450Z,28.37
2022-10-14T14:58:29.797Z,26.93
2022-10-14T15:00:57.956Z,22.10
2022-10-14T15:03:28.452Z,29.37
2022-10-14T15:05:58.421Z,23.33
2022-10-14T15:08:27.752Z,26.30
2022-10-14T15:10:56.487Z,29.13
2022-10-14T15:13:44.818Z,24.63
2022-10-14T15:16:12.993Z,26.03
2022-10-14T15:18:43.716Z,22.93
2022-10-14T15:21:19.386Z,22.67
2022-10-14T15:24:00.509Z,21.70
2022-10-14T15:26:33.568Z,23.37
2022-10-14T15:29:22.409Z,22.83
2022-10-14T15:32:05.985Z,27.40
2022-10-14T15:34:35.929Z,21.77
2022-10-14T15:37:04.115Z,24.43
2022-10-14T15:39:32.287Z,24.77
2022-10-14T15:42:01.810Z,28.97
2022-10-14T15:44:29.906Z,21.93
2022-10-14T15:47:15.728Z,24.40
2022-10-14T15:49:45.364Z,23.83
2022-10-14T15:52:14.646Z,22.17
2022-10-14T15:54:42.766Z,28.53
2022-10-14T15:57:13.946Z,25.27
2022-10-14T15:59:44.705Z,27.77
2022-10-14T16:02:14.891Z,26.67
2022-10-14T16:05:00.591Z,29.23
2022-10-14T16:07:32.808Z,25.17
2022-10-14T16:10:00.907Z,26.70
2022-10-14T16:12:29.148Z,25.83
2022-10-14T16:14:57.305Z,26.03
2022-10-14T16:17:25.726Z,28.57
2022-10-14T16:19:55.357Z,25.73
2022-10-14T16:22:23.511Z,25.50
2022-10-14T16:24:51.742Z,28.97
2022-10-14T16:27:20.072Z,29.90
2022-10-14T16:29:48.434Z,32.03
2022-10-14T16:32:16.770Z,32.73
2022-10-14T16:34:44.904Z,33.30
2022-10-14T16:37:14.493Z,29.40
2022-10-14T16:39:42.637Z,30.47
2022-10-14T16:42:10.907Z,29.70
2022-10-14T16:44:39.129Z,30.13
2022-10-14T16:47:20.484Z,23.83
2022-10-14T16:49:52.029Z,23.50
2022-10-14T16:52:21.947Z,29.47
2022-10-14T16:54:50.495Z,27.97
2022-10-14T16:57:18.704Z,29.13
2022-10-14T16:59:46.962Z,24.23
2022-10-14T17:02:16.202Z,28.20
2022-10-14T17:04:46.543Z,29.17
2022-10-14T17:07:17.501Z,27.87
2022-10-14T17:09:47.056Z,29.93
2022-10-14T17:12:15.348Z,27.07
2022-10-14T17:14:44.074Z,25.07
2022-10-14T17:17:13.177Z,26.97
2022-10-14T17:19:41.551Z,25.93
2022-10-14T17:22:09.706Z,25.63
2022-10-14T17:24:37.857Z,29.60
2022-10-14T17:27:07.477Z,31.73
2022-10-14T17:29:35.820Z,26.73
2022-10-14T17:32:03.989Z,31.77
2022-10-14T17:34:33.119Z,29.93
2022-10-14T17:37:01.331Z,27.87
2022-10-14T17:39:29.858Z,29.20
2022-10-14T17:41:58.426Z,31.37
2022-10-14T17:44:28.838Z,29.70
2022-10-14T17:46:57.037Z,28.57
2022-10-14T17:49:25.225Z,28.20
2022-10-14T17:51:53.404Z,34.97
2022-10-14T17:54:21.721Z,31.43
2022-10-14T17:56:49.940Z,35.80
2022-10-14T17:59:18.113Z,29.90
2022-10-14T18:02:04.298Z,34.07
2022-10-14T18:04:33.495Z,35.87
2022-10-14T18:07:01.824Z,38.67
2022-10-14T18:09:29.935Z,31.47
2022-10-14T18:12:13.754Z,34.60
2022-10-14T18:14:41.926Z,36.97
2022-10-14T18:17:12.871Z,33.20
2022-10-14T18:19:41.496Z,41.50
2022-10-14T18:22:11.329Z,41.27
2022-10-14T18:24:39.723Z,37.57
2022-10-14T18:27:08.159Z,40.33
2022-10-14T18:29:36.325Z,36.70
2022-10-14T18:32:04.734Z,40.23
2022-10-14T18:34:34.219Z,37.47
2022-10-14T18:37:02.407Z,40.07
2022-10-14T18:39:30.735Z,40.53
2022-10-14T18:41:58.862Z,38.13
2022-10-14T18:44:27.256Z,38.80
2022-10-14T18:46:56.915Z,37.80
2022-10-14T18:49:25.018Z,39.57
2022-10-14T18:51:55.429Z,40.10
2022-10-14T18:54:25.059Z,44.10
2022-10-14T18:56:53.380Z,42.83
2022-10-14T18:59:23.120Z,41.67
2022-10-14T19:01:53.546Z,37.77
2022-10-14T19:04:23.013Z,39.30
2022-10-14T19:06:51.333Z,37.80
2022-10-14T19:09:24.702Z,43.50
2022-10-14T19:11:53.056Z,35.93
2022-10-14T19:14:22.331Z,39.80
2022-10-14T19:16:50.557Z,37.53
2022-10-14T19:19:20.054Z,38.63
2022-10-14T19:21:50.571Z,39.47
2022-10-14T19:24:20.899Z,34.30
2022-10-14T19:26:50.294Z,39.20
2022-10-14T19:29:18.644Z,36.57
2022-10-14T19:31:46.831Z,38.20
2022-10-14T19:34:16.109Z,38.80
2022-10-14T19:36:44.471Z,38.97
2022-10-14T19:39:13.577Z,36.43
2022-10-14T19:41:45.015Z,36.20
2022-10-14T19:44:13.697Z,35.10
2022-10-14T19:46:42.040Z,40.77
2022-10-14T19:49:12.151Z,39.33
2022-10-14T19:51:40.293Z,38.43
2022-10-14T19:54:08.471Z,36.80
2022-10-14T19:56:36.798Z,40.40
2022-10-14T19:59:06.313Z,39.00
2022-10-14T20:01:34.653Z,42.87
2022-10-14T20:04:03.191Z,41.13
2022-10-14T20:06:33.295Z,42.30
2022-10-14T20:09:01.565Z,45.13
2022-10-14T20:11:29.793Z,41.57
2022-10-14T20:13:57.990Z,43.53
2022-10-14T20:16:27.643Z,41.50
2022-10-14T20:18:56.032Z,40.80
2022-10-14T20:21:24.279Z,43.70
2022-10-14T20:23:52.377Z,44.17
2022-10-14T20:26:22.059Z,43.20
2022-10-14T20:28:51.087Z,42.17
2022-10-14T20:31:20.378Z,40.57
2022-10-14T20:33:49.924Z,42.03
2022-10-14T20:36:19.123Z,39.33
2022-10-14T20:38:47.418Z,42.27
2022-10-14T20:41:17.049Z,43.83
2022-10-14T20:43:45.358Z,45.33
2022-10-14T20:46:13.653Z,40.93
2022-10-14T20:48:41.846Z,44.07
2022-10-14T20:51:12.454Z,45.53
2022-10-14T20:56:14.445Z,43.33
2022-10-14T20:58:42.919Z,45.67
2022-10-14T21:01:12.383Z,39.63
2022-10-14T21:03:40.632Z,41.57
2022-10-14T21:06:11.802Z,37.90
2022-10-14T21:08:40.266Z,40.70
2022-10-14T21:11:13.686Z,36.60
2022-10-14T21:13:45.106Z,40.07
2022-10-14T21:16:17.231Z,37.40
2022-10-14T21:18:49.703Z,36.63
2022-10-14T21:21:21.930Z,39.17
2022-10-14T21:23:50.116Z,39.53
2022-10-14T21:26:18.361Z,37.37
2022-10-14T21:28:46.756Z,33.17
2022-10-14T21:31:17.565Z,39.27
2022-10-14T21:33:47.857Z,37.03
2022-10-14T21:36:16.593Z,44.23
2022-10-14T21:38:46.166Z,41.90
2022-10-14T21:41:14.317Z,40.07
2022-10-14T21:43:42.449Z,39.73
2022-10-14T21:46:11.284Z,41.27
2022-10-14T21:48:39.447Z,43.87
2022-10-14T21:51:08.615Z,39.70
2022-10-14T21:53:36.982Z,38.60
2022-10-14T21:56:07.018Z,41.90
2022-10-14T21:58:35.300Z,39.43
2022-10-14T22:01:06.791Z,40.43
2022-10-14T22:03:35.009Z,35.30
2022-10-14T22:08:37.841Z,39.93
2022-10-14T22:11:07.726Z,35.60
2022-10-14T22:13:36.273Z,33.40
2022-10-14T22:16:04.439Z,35.87
2022-10-14T22:18:32.606Z,36.40
2022-10-14T22:21:01.939Z,37.20
2022-10-14T22:23:30.130Z,40.27
2022-10-14T22:26:00.820Z,39.63
2022-10-14T22:28:31.066Z,37.27
2022-10-14T22:31:05.263Z,35.63
2022-10-14T22:33:35.350Z,36.53
2022-10-14T22:36:07.710Z,38.53
2022-10-14T22:38:35.884Z,32.47
2022-10-14T22:41:04.234Z,34.47
2022-10-14T22:43:33.939Z,33.70
2022-10-14T22:46:02.449Z,37.97
2022-10-14T22:48:30.877Z,37.63
2022-10-14T22:51:04.276Z,36.90
2022-10-14T22:53:32.426Z,38.37
2022-10-14T22:56:00.574Z,34.63
2022-10-14T22:58:28.766Z,37.03
2022-10-14T23:00:58.264Z,36.83
2022-10-14T23:03:27.446Z,33.57
2022-10-14T23:05:55.556Z,32.70
2022-10-14T23:08:23.985Z,36.40
2022-10-14T23:10:52.233Z,33.97
2022-10-14T23:13:20.466Z,34.80
2022-10-14T23:15:57.463Z,36.57
2022-10-14T23:18:25.788Z,33.53
2022-10-14T23:20:53.973Z,33.33
2022-10-14T23:23:22.099Z,34.60
2022-10-14T23:25:50.198Z,34.47
2022-10-14T23:28:18.382Z,34.00
2022-10-14T23:30:46.559Z,32.00
2022-10-14T23:33:16.068Z,27.83
2022-10-14T23:35:44.136Z,34.07
2022-10-14T23:38:12.594Z,32.47
2022-10-14T23:40:40.705Z,33.53
2022-10-14T23:43:09.053Z,32.23
2022-10-14T23:45:37.235Z,33.13
2022-10-14T23:48:05.883Z,33.30
2022-10-14T23:50:35.452Z,33.20
2022-10-14T23:53:03.644Z,32.37
2022-10-14T23:55:31.803Z,32.43
2022-10-14T23:58:00.123Z,35.03
